createdAt,value
2022-11-16T00:00:48.537Z,95125.93
2022-11-16T00:03:18.638Z,95141.04
2022-11-16T00:05:48.916Z,95141.04
2022-11-16T00:08:17.579Z,95139.31
2022-11-16T00:10:47.611Z,95129.11
2022-11-16T00:13:16.373Z,95122.48
2022-11-16T00:15:44.976Z,95125.38
2022-11-16T00:18:13.631Z,95125.16
2022-11-16T00:20:46.166Z,95126.52
2022-11-16T00:23:14.805Z,95126.52
2022-11-16T00:25:43.523Z,95122.55
2022-11-16T00:28:12.415Z,95119.77
2022-11-16T00:30:42.899Z,95121.70
2022-11-16T00:33:15.163Z,95117.06
2022-11-16T00:35:43.660Z,95114.42
2022-11-16T00:38:12.947Z,95117.65
2022-11-16T00:40:41.470Z,95114.76
2022-11-16T00:43:10.027Z,95114.76
2022-11-16T00:45:40.630Z,95104.92
2022-11-16T00:48:11.195Z,95107.07
2022-11-16T00:50:40.668Z,95101.91
2022-11-16T00:53:11.084Z,95025.59
2022-11-16T00:55:41.529Z,95098.05
2022-11-16T00:58:10.137Z,95088.51
2022-11-16T01:00:39.126Z,95088.51
2022-11-16T01:03:09.474Z,95094.83
2022-11-16T01:05:38.157Z,95093.22
2022-11-16T01:08:07.456Z,95085.31
2022-11-16T01:10:39.459Z,95081.59
2022-11-16T01:13:08.767Z,95078.65
2022-11-16T01:15:37.418Z,95078.55
2022-11-16T01:18:06.163Z,95077.99
2022-11-16T01:20:39.199Z,95077.33
2022-11-16T01:23:07.955Z,95075.05
2022-11-16T01:25:36.728Z,95068.94
2022-11-16T01:28:05.597Z,95070.39
2022-11-16T01:30:35.745Z,95056.08
2022-11-16T01:33:04.612Z,95056.08
2022-11-16T01:35:33.329Z,95059.80
2022-11-16T01:38:01.802Z,95064.66
2022-11-16T01:40:30.397Z,95068.80
2022-11-16T01:42:58.970Z,95067.70
2022-11-16T01:45:36.845Z,95063.76
2022-11-16T01:48:06.320Z,95061.17
2022-11-16T01:50:35.456Z,95070.44
2022-11-16T01:53:06.920Z,95056.28
2022-11-16T01:55:37.276Z,95063.84
2022-11-16T01:58:07.246Z,95063.84
2022-11-16T02:00:37.614Z,95064.39
2022-11-16T02:03:06.178Z,95062.16
2022-11-16T02:05:40.677Z,95061.73
2022-11-16T02:08:33.436Z,95047.47
2022-11-16T02:11:32.660Z,95047.20
2022-11-16T02:14:28.624Z,95047.20
2022-11-16T02:17:13.086Z,95034.98
2022-11-16T02:20:17.907Z,95019.91
2022-11-16T02:23:18.372Z,95032.09
2022-11-16T02:26:09.619Z,95038.13
2022-11-16T02:29:06.776Z,95037.08
2022-11-16T02:31:40.913Z,95038.58
2022-11-16T02:34:12.637Z,95038.98
2022-11-16T02:36:47.364Z,95038.98
2022-11-16T02:39:18.049Z,95037.73
2022-11-16T02:41:49.247Z,95032.02
2022-11-16T02:44:23.869Z,95032.02
2022-11-16T02:46:55.476Z,95027.89
2022-11-16T02:49:26.564Z,95029.08
2022-11-16T02:51:56.887Z,95029.08
2022-11-16T02:54:25.526Z,95036.14
2022-11-16T02:56:57.162Z,95021.50
2022-11-16T02:59:28.720Z,95022.91
2022-11-16T03:02:19.923Z,95023.81
2022-11-16T03:04:54.265Z,95017.44
2022-11-16T03:07:25.933Z,95015.82
2022-11-16T03:09:57.817Z,95012.99
2022-11-16T03:12:29.472Z,95008.52
2022-11-16T03:15:01.032Z,95007.10
2022-11-16T03:17:35.546Z,95008.09
2022-11-16T03:20:07.507Z,95012.33
2022-11-16T03:22:39.164Z,95014.48
2022-11-16T03:25:09.478Z,95008.44
2022-11-16T03:27:50.319Z,95004.95
2022-11-16T03:30:27.858Z,95001.61
2022-11-16T03:33:24.374Z,95004.80
2022-11-16T03:36:04.440Z,94995.88
2022-11-16T03:38:38.884Z,94997.59
2022-11-16T03:41:14.933Z,95000.14
2022-11-16T03:43:45.278Z,94994.91
2022-11-16T03:46:24.703Z,94991.59
2022-11-16T03:49:01.705Z,94998.25
2022-11-16T03:51:30.564Z,94997.23
2022-11-16T03:53:59.360Z,94997.11
2022-11-16T03:56:27.849Z,94995.48
2022-11-16T03:58:57.860Z,94994.62
2022-11-16T04:01:26.576Z,94989.88
2022-11-16T04:03:57.977Z,94987.67
2022-11-16T04:06:51.785Z,94979.30
2022-11-16T04:09:38.594Z,94979.30
2022-11-16T04:12:27.422Z,94981.84
2022-11-16T04:15:15.097Z,94975.09
2022-11-16T04:18:01.850Z,94972.39
2022-11-16T04:20:48.400Z,94957.45
2022-11-16T04:23:37.039Z,94957.45
2022-11-16T04:26:08.358Z,94959.34
2022-11-16T04:28:38.018Z,94959.34
2022-11-16T04:31:24.916Z,94952.56
2022-11-16T04:37:17.687Z,94949.80
2022-11-16T04:39:49.524Z,94949.80
2022-11-16T04:42:20.493Z,94947.59
2022-11-16T04:45:07.168Z,94950.68
2022-11-16T04:47:35.740Z,94951.12
2022-11-16T04:50:05.030Z,94943.55
2022-11-16T04:52:33.759Z,94953.65
2022-11-16T04:55:02.398Z,94954.87
2022-11-16T04:57:30.933Z,94943.31
2022-11-16T05:03:06.100Z,94949.91
2022-11-16T05:05:34.694Z,94944.66
2022-11-16T05:08:06.346Z,94942.88
2022-11-16T05:10:36.304Z,94944.65
2022-11-16T05:16:32.814Z,94943.11
2022-11-16T05:19:25.412Z,94935.39
2022-11-16T05:21:55.994Z,94933.42
2022-11-16T05:24:46.068Z,94942.55
2022-11-16T05:27:19.980Z,94937.60
2022-11-16T05:29:55.441Z,94936.71
2022-11-16T05:32:26.926Z,94935.17
2022-11-16T05:34:55.608Z,94938.11
2022-11-16T05:37:26.996Z,94944.84
2022-11-16T05:39:57.123Z,94944.81
2022-11-16T05:42:28.463Z,94940.86
2022-11-16T05:44:57.074Z,94938.02
2022-11-16T05:47:27.680Z,94938.21
2022-11-16T05:50:03.787Z,94935.38
2022-11-16T05:52:35.381Z,94937.38
2022-11-16T05:55:04.189Z,94945.52
2022-11-16T05:57:32.703Z,94935.06
2022-11-16T06:00:03.042Z,94940.78
2022-11-16T06:02:36.034Z,94939.56
2022-11-16T06:05:04.695Z,94942.39
2022-11-16T06:07:55.713Z,94944.14
2022-11-16T06:10:25.826Z,94942.46
2022-11-16T06:13:06.427Z,94950.52
2022-11-16T06:15:39.721Z,94949.98
2022-11-16T06:21:06.183Z,94947.78
2022-11-16T06:23:35.187Z,94944.88
2022-11-16T06:26:05.492Z,94945.25
2022-11-16T06:28:35.072Z,94945.94
2022-11-16T06:31:04.296Z,94942.14
2022-11-16T06:33:33.918Z,94940.31
2022-11-16T06:36:03.192Z,94945.98
2022-11-16T06:38:33.763Z,94943.58
2022-11-16T06:41:02.563Z,94948.52
2022-11-16T06:43:32.395Z,94942.58
2022-11-16T06:46:00.975Z,94948.95
2022-11-16T06:48:34.439Z,94946.93
2022-11-16T06:51:04.889Z,94943.13
2022-11-16T06:56:20.322Z,94943.92
2022-11-16T06:58:53.079Z,94934.33
2022-11-16T07:01:19.219Z,94936.73
2022-11-16T07:03:47.825Z,94940.59
2022-11-16T07:06:16.878Z,94930.36
2022-11-16T07:08:45.687Z,94931.41
2022-11-16T07:11:17.300Z,94935.94
2022-11-16T07:13:46.194Z,94936.98
2022-11-16T07:16:19.186Z,94942.11
2022-11-16T07:18:50.955Z,94931.45
2022-11-16T07:21:20.163Z,94936.75
2022-11-16T07:23:52.011Z,94934.53
2022-11-16T07:26:25.534Z,94935.08
2022-11-16T07:28:54.469Z,94939.31
2022-11-16T07:31:23.146Z,94930.05
2022-11-16T07:33:52.555Z,94933.19
2022-11-16T07:36:21.908Z,94925.50
2022-11-16T07:38:50.427Z,94929.51
2022-11-16T07:41:23.917Z,94924.34
2022-11-16T07:43:53.350Z,94920.92
2022-11-16T07:48:53.954Z,94919.59
2022-11-16T07:51:22.735Z,94927.77
2022-11-16T07:53:57.335Z,94921.02
2022-11-16T07:56:26.551Z,94918.84
2022-11-16T07:58:55.102Z,94913.20
2022-11-16T08:01:26.062Z,94914.72
2022-11-16T08:03:54.986Z,94915.97
2022-11-16T08:06:26.994Z,94916.05
2022-11-16T08:09:00.117Z,94910.12
2022-11-16T08:11:28.825Z,94908.53
2022-11-16T08:13:58.195Z,94907.25
2022-11-16T08:16:26.747Z,94901.39
2022-11-16T08:18:55.445Z,94905.39
2022-11-16T08:21:25.059Z,94893.19
2022-11-16T08:23:58.513Z,94891.68
2022-11-16T08:26:29.807Z,94886.66
2022-11-16T08:28:58.613Z,94886.50
2022-11-16T08:31:29.427Z,94876.33
2022-11-16T08:34:08.972Z,94879.70
2022-11-16T08:36:48.072Z,94878.02
2022-11-16T08:39:19.589Z,94876.04
2022-11-16T08:41:48.321Z,94873.58
2022-11-16T08:44:18.051Z,94879.06
2022-11-16T08:46:51.464Z,94875.67
2022-11-16T08:49:20.708Z,94874.69
2022-11-16T08:51:49.525Z,94869.55
2022-11-16T08:54:18.065Z,94866.62
2022-11-16T08:56:48.129Z,94874.67
2022-11-16T08:59:16.807Z,94870.80
2022-11-16T09:01:47.218Z,94870.39
2022-11-16T09:04:16.001Z,94865.71
2022-11-16T09:06:44.561Z,94868.70
2022-11-16T09:09:13.257Z,94866.01
2022-11-16T09:11:41.903Z,94865.71
2022-11-16T09:14:10.699Z,94855.73
2022-11-16T09:16:39.292Z,94857.60
2022-11-16T09:19:07.958Z,94858.62
2022-11-16T09:21:37.583Z,94850.37
2022-11-16T09:24:07.792Z,94846.45
2022-11-16T09:26:36.442Z,94836.48
2022-11-16T09:29:05.195Z,94831.86
2022-11-16T09:31:36.118Z,94824.03
2022-11-16T09:34:05.252Z,94818.80
2022-11-16T09:36:33.950Z,94811.81
2022-11-16T09:41:59.680Z,94808.91
2022-11-16T09:45:00.038Z,94800.12
2022-11-16T09:47:43.597Z,94795.94
2022-11-16T09:53:28.200Z,94793.88
2022-11-16T09:56:02.783Z,94783.59
2022-11-16T09:58:34.973Z,94766.33
2022-11-16T10:01:27.870Z,94779.56
2022-11-16T10:04:04.073Z,94779.34
2022-11-16T10:09:57.751Z,94757.29
2022-11-16T10:12:42.494Z,94752.86
2022-11-16T10:15:32.300Z,94741.75
2022-11-16T10:18:27.459Z,94732.35
2022-11-16T10:21:03.250Z,94730.34
2022-11-16T10:23:56.007Z,94719.44
2022-11-16T10:26:46.141Z,94720.90
2022-11-16T10:29:17.708Z,94713.63
2022-11-16T10:32:13.221Z,94713.05
2022-11-16T10:34:58.743Z,94706.53
2022-11-16T10:37:30.350Z,94704.73
2022-11-16T10:39:59.206Z,94698.41
2022-11-16T10:42:30.849Z,94693.92
2022-11-16T10:45:05.228Z,94693.23
2022-11-16T10:47:43.018Z,94695.89
2022-11-16T10:50:45.088Z,94691.52
2022-11-16T10:53:19.097Z,94690.48
2022-11-16T10:55:49.260Z,94687.86
2022-11-16T10:58:20.458Z,94684.21
2022-11-16T11:00:54.033Z,94679.44
2022-11-16T11:03:33.710Z,94687.89
2022-11-16T11:06:08.627Z,94672.01
2022-11-16T11:08:37.365Z,94664.88
2022-11-16T11:11:25.751Z,94666.52
2022-11-16T11:14:11.832Z,94659.41
2022-11-16T11:16:41.617Z,94651.84
2022-11-16T11:19:22.197Z,94649.38
2022-11-16T11:21:50.857Z,94642.57
2022-11-16T11:27:00.542Z,94622.83
2022-11-16T11:29:34.661Z,94627.16
2022-11-16T11:32:09.119Z,94622.43
2022-11-16T11:34:43.506Z,94616.14
2022-11-16T11:37:17.877Z,94616.28
2022-11-16T11:39:47.154Z,94618.61
2022-11-16T11:42:18.779Z,94614.88
2022-11-16T11:44:59.569Z,94607.63
2022-11-16T11:48:01.443Z,94601.58
2022-11-16T11:50:27.122Z,94601.67
2022-11-16T11:52:57.504Z,94602.26
2022-11-16T11:55:26.391Z,94599.08
2022-11-16T11:57:58.778Z,94589.73
2022-11-16T12:01:00.670Z,94578.44
2022-11-16T12:03:53.426Z,94574.95
2022-11-16T12:06:30.610Z,94568.22
2022-11-16T12:09:02.336Z,94565.58
2022-11-16T12:12:14.847Z,94567.03
2022-11-16T12:15:07.466Z,94567.02
2022-11-16T12:17:58.550Z,94565.12
2022-11-16T12:20:39.402Z,94562.38
2022-11-16T12:23:44.425Z,94561.56
2022-11-16T12:26:53.285Z,94550.63
2022-11-16T12:29:55.121Z,94545.73
2022-11-16T12:32:26.700Z,94548.30
2022-11-16T12:35:00.975Z,94542.14
2022-11-16T12:37:39.614Z,94538.77
2022-11-16T12:40:20.207Z,94542.72
2022-11-16T12:43:15.804Z,94529.95
2022-11-16T12:45:56.419Z,94534.70
2022-11-16T12:49:03.095Z,94531.66
2022-11-16T12:51:55.662Z,94526.97
2022-11-16T12:54:30.220Z,94521.63
2022-11-16T12:57:21.267Z,94523.25
2022-11-16T13:00:06.881Z,94513.66
2022-11-16T13:03:02.621Z,94513.51
2022-11-16T13:05:57.534Z,94512.59
2022-11-16T13:08:53.648Z,94508.50
2022-11-16T13:11:25.629Z,94506.80
2022-11-16T13:14:07.342Z,94508.72
2022-11-16T13:16:37.090Z,94498.83
2022-11-16T13:19:09.170Z,94497.87
2022-11-16T13:21:57.329Z,94498.91
2022-11-16T13:24:40.768Z,94496.03
2022-11-16T13:27:38.608Z,94493.72
2022-11-16T13:30:19.330Z,94497.56
2022-11-16T13:33:11.393Z,94486.02
2022-11-16T13:35:40.465Z,94488.75
2022-11-16T13:38:16.706Z,94490.66
2022-11-16T13:40:47.041Z,94481.64
2022-11-16T13:43:18.728Z,94486.19
2022-11-16T13:46:01.893Z,94490.72
2022-11-16T13:48:36.551Z,94487.22
2022-11-16T13:51:08.336Z,94487.05
2022-11-16T13:54:43.184Z,94493.89
2022-11-16T13:56:16.207Z,94497.44
2022-11-16T13:58:50.931Z,94490.76
2022-11-16T14:01:20.352Z,94486.12
2022-11-16T14:03:52.372Z,94493.50
2022-11-16T14:06:29.644Z,94497.03
2022-11-16T14:08:59.566Z,94490.59
2022-11-16T14:11:41.365Z,94480.56
2022-11-16T14:14:14.388Z,94477.36
2022-11-16T14:16:53.173Z,94472.29
2022-11-16T14:19:55.253Z,94472.19
2022-11-16T14:22:29.733Z,94471.39
2022-11-16T14:25:01.341Z,94473.75
2022-11-16T14:27:39.034Z,94470.37
2022-11-16T14:30:16.430Z,94474.78
2022-11-16T14:32:47.378Z,94469.92
2022-11-16T14:35:39.534Z,94469.75
2022-11-16T14:38:36.960Z,94466.44
2022-11-16T14:41:08.197Z,94461.38
2022-11-16T14:43:44.443Z,94462.92
2022-11-16T14:46:32.073Z,94460.77
2022-11-16T14:49:02.656Z,94469.20
2022-11-16T14:51:40.694Z,94463.89
2022-11-16T14:54:27.071Z,94462.38
2022-11-16T14:57:03.842Z,94457.48
2022-11-16T14:59:32.835Z,94457.48
2022-11-16T15:02:04.494Z,94461.69
2022-11-16T15:04:36.052Z,94460.92
2022-11-16T15:07:06.506Z,94453.73
2022-11-16T15:09:37.918Z,94452.38
2022-11-16T15:12:26.803Z,94452.59
2022-11-16T15:14:58.436Z,94445.55
2022-11-16T15:17:32.974Z,94448.80
2022-11-16T15:20:00.060Z,94448.61
2022-11-16T15:22:31.713Z,94442.88
2022-11-16T15:25:02.368Z,94440.80
2022-11-16T15:27:36.788Z,94441.55
2022-11-16T15:30:30.053Z,94442.90
2022-11-16T15:32:58.633Z,94440.80
2022-11-16T15:35:32.775Z,94442.70
2022-11-16T15:38:42.303Z,94437.36
2022-11-16T15:40:53.111Z,94437.77
2022-11-16T15:44:01.359Z,94440.61
2022-11-16T15:46:15.015Z,94436.21
2022-11-16T15:48:53.480Z,94437.77
2022-11-16T15:51:24.190Z,94438.50
2022-11-16T15:54:10.996Z,94433.36
2022-11-16T15:56:41.692Z,94446.13
2022-11-16T15:59:15.690Z,94365.12
2022-11-16T16:01:45.882Z,94437.20
2022-11-16T16:04:19.380Z,94436.22
2022-11-16T16:06:53.617Z,94433.73
2022-11-16T16:09:28.020Z,94432.03
2022-11-16T16:12:17.758Z,94437.36
2022-11-16T16:14:50.226Z,94440.80
2022-11-16T16:17:30.260Z,94444.22
2022-11-16T16:20:01.890Z,94443.67
2022-11-16T16:22:36.423Z,94444.81
2022-11-16T16:25:07.403Z,94447.47
2022-11-16T16:27:41.337Z,94449.95
2022-11-16T16:30:11.717Z,94448.59
2022-11-16T16:32:41.184Z,94445.93
2022-11-16T16:35:13.293Z,94444.22
2022-11-16T16:37:41.809Z,94443.08
2022-11-16T16:40:11.149Z,94448.03
2022-11-16T16:42:41.453Z,94444.23
2022-11-16T16:45:30.002Z,94446.88
2022-11-16T16:47:58.708Z,94443.25
2022-11-16T16:50:27.377Z,94442.34
2022-11-16T16:52:56.036Z,94440.23
2022-11-16T16:55:29.735Z,94444.79
2022-11-16T16:57:58.281Z,94435.09
2022-11-16T17:00:27.234Z,94439.87
2022-11-16T17:02:55.777Z,94437.19
2022-11-16T17:05:24.413Z,94438.91
2022-11-16T17:07:54.987Z,94443.29
2022-11-16T17:10:23.939Z,94435.48
2022-11-16T17:12:57.718Z,94432.84
2022-11-16T17:15:26.840Z,94425.78
2022-11-16T17:17:55.436Z,94433.58
2022-11-16T17:20:24.014Z,94426.15
2022-11-16T17:22:52.829Z,94428.44
2022-11-16T17:25:21.539Z,94424.27
2022-11-16T17:27:50.176Z,94430.34
2022-11-16T17:30:18.777Z,94356.36
2022-11-16T17:32:47.373Z,94429.41
2022-11-16T17:35:16.035Z,94423.52
2022-11-16T17:37:44.476Z,94422.16
2022-11-16T17:40:14.149Z,94413.22
2022-11-16T17:42:43.254Z,94415.52
2022-11-16T17:45:14.953Z,94413.98
2022-11-16T17:47:45.326Z,94413.81
2022-11-16T17:50:14.786Z,94407.73
2022-11-16T17:52:43.364Z,94409.81
2022-11-16T17:55:12.054Z,94399.16
2022-11-16T17:57:40.587Z,94408.98
2022-11-16T18:00:16.960Z,94407.29
2022-11-16T18:02:45.548Z,94398.95
2022-11-16T18:05:14.229Z,94406.00
2022-11-16T18:07:44.031Z,94410.14
2022-11-16T18:10:19.003Z,94407.10
2022-11-16T18:12:44.484Z,94399.33
2022-11-16T18:15:28.172Z,94402.77
2022-11-16T18:17:45.852Z,94397.44
2022-11-16T18:20:14.805Z,94396.88
2022-11-16T18:22:43.480Z,94390.99
2022-11-16T18:25:14.426Z,94382.22
2022-11-16T18:27:47.437Z,94384.11
2022-11-16T18:30:21.962Z,94377.07
2022-11-16T18:32:53.622Z,94377.48
2022-11-16T18:35:24.131Z,94368.91
2022-11-16T18:37:52.839Z,94362.27
2022-11-16T18:40:24.583Z,94374.06
2022-11-16T18:42:53.127Z,94377.65
2022-11-16T18:45:23.234Z,94383.34
2022-11-16T18:47:56.217Z,94390.74
2022-11-16T18:50:27.005Z,94385.05
2022-11-16T18:52:55.563Z,94389.20
2022-11-16T18:55:28.150Z,94392.45
2022-11-16T18:57:56.734Z,94389.84
2022-11-16T19:00:25.236Z,94390.78
2022-11-16T19:02:53.954Z,94396.28
2022-11-16T19:05:22.550Z,94388.31
2022-11-16T19:07:51.142Z,94389.83
2022-11-16T19:12:49.311Z,94379.95
2022-11-16T19:15:21.338Z,94384.51
2022-11-16T19:18:19.402Z,94386.02
2022-11-16T19:20:23.940Z,94389.09
2022-11-16T19:22:52.710Z,94381.05
2022-11-16T19:25:24.433Z,94369.66
2022-11-16T19:27:54.436Z,94374.63
2022-11-16T19:36:03.360Z,94384.13
2022-11-16T19:38:33.650Z,94386.42
2022-11-16T19:41:02.603Z,94373.86
2022-11-16T19:43:36.257Z,94380.70
2022-11-16T19:46:16.790Z,94378.22
2022-11-16T19:48:49.325Z,94381.66
2022-11-16T19:51:27.189Z,94386.61
2022-11-16T19:53:56.220Z,94382.99
2022-11-16T19:56:33.257Z,94386.98
2022-11-16T19:59:03.827Z,94390.41
2022-11-16T20:01:38.643Z,94373.10
2022-11-16T20:04:12.046Z,94379.18
2022-11-16T20:06:43.701Z,94373.48
2022-11-16T20:09:13.052Z,94357.50
2022-11-16T20:11:45.859Z,94360.91
2022-11-16T20:17:01.889Z,94363.94
2022-11-16T20:19:30.900Z,94365.83
2022-11-16T20:22:05.178Z,94359.16
2022-11-16T20:24:41.785Z,94363.72
2022-11-16T20:27:19.425Z,94371.32
2022-11-16T20:29:57.011Z,94350.83
2022-11-16T20:32:46.723Z,94350.27
2022-11-16T20:35:23.225Z,94275.53
2022-11-16T20:37:53.332Z,94331.45
2022-11-16T20:40:26.510Z,94309.20
2022-11-16T20:42:56.822Z,94320.25
2022-11-16T20:45:31.521Z,94319.46
2022-11-16T20:48:03.209Z,94250.00
2022-11-16T20:50:39.689Z,94312.05
2022-11-16T20:53:20.781Z,94320.23
2022-11-16T20:55:50.353Z,94312.20
2022-11-16T20:58:24.180Z,94308.99
2022-11-16T21:01:10.946Z,94327.05
2022-11-16T21:03:40.774Z,94326.24
2022-11-16T21:06:12.273Z,94300.84
2022-11-16T21:08:44.716Z,94304.27
2022-11-16T21:11:27.678Z,94296.30
2022-11-16T21:14:13.272Z,94309.80
2022-11-16T21:19:39.583Z,94309.97
2022-11-16T21:22:12.702Z,94306.95
2022-11-16T21:24:59.351Z,94285.27
2022-11-16T21:27:34.678Z,94293.05
2022-11-16T21:30:07.649Z,94307.04
2022-11-16T21:32:40.495Z,94303.86
2022-11-16T21:35:14.883Z,94299.87
2022-11-16T21:37:55.612Z,94298.92
2022-11-16T21:40:25.206Z,94205.64
2022-11-16T21:42:53.848Z,94299.70
2022-11-16T21:45:24.354Z,94284.12
2022-11-16T21:47:58.468Z,94290.58
2022-11-16T21:50:32.495Z,94289.06
2022-11-16T21:53:06.867Z,94295.16
2022-11-16T21:55:50.263Z,94277.28
2022-11-16T21:58:29.049Z,94276.91
2022-11-16T22:04:29.161Z,94274.64
2022-11-16T22:07:26.253Z,94266.47
2022-11-16T22:16:08.039Z,94270.08
2022-11-16T22:21:33.879Z,94279.38
2022-11-16T22:24:14.473Z,94255.64
2022-11-16T22:26:55.263Z,94255.24
2022-11-16T22:29:38.166Z,94260.58
2022-11-16T22:32:06.100Z,94265.12
2022-11-16T22:34:42.598Z,94273.30
2022-11-16T22:37:16.162Z,94249.94
2022-11-16T22:39:47.798Z,94245.00
2022-11-16T22:42:18.416Z,94233.97
2022-11-16T22:44:48.577Z,94236.24
2022-11-16T22:47:22.600Z,94212.52
2022-11-16T22:49:52.297Z,94232.47
2022-11-16T22:52:25.681Z,94228.66
2022-11-16T22:55:04.070Z,94228.26
2022-11-16T22:57:35.496Z,94215.92
2022-11-16T23:00:10.767Z,94231.33
2022-11-16T23:02:41.400Z,94224.67
2022-11-16T23:05:13.697Z,94214.39
2022-11-16T23:07:44.146Z,94226.37
2022-11-16T23:10:13.007Z,94230.17
2022-11-16T23:13:01.304Z,94214.03
2022-11-16T23:15:48.119Z,94223.13
2022-11-16T23:18:19.171Z,94237.57
2022-11-16T23:21:39.230Z,94217.24
2022-11-16T23:24:31.446Z,94222.39
2022-11-16T23:27:20.081Z,94215.91
2022-11-16T23:30:01.715Z,94225.23
2022-11-16T23:32:31.170Z,94215.70
2022-11-16T23:35:00.109Z,94217.02
2022-11-16T23:37:28.840Z,94225.42
2022-11-16T23:39:57.443Z,94215.72
2022-11-16T23:42:44.032Z,94210.03
2022-11-16T23:45:12.621Z,94195.39
2022-11-16T23:47:41.125Z,94208.13
2022-11-16T23:50:10.037Z,94186.88
2022-11-16T23:52:38.540Z,94196.74
2022-11-16T23:55:07.855Z,94180.41
2022-11-16T23:57:36.456Z,94185.14
